SBOSBO XFW / EDHI
Speedbird OnlineSpeedbird Online XFW / EDHI

Hamburg-Finkenwerder Airport
22:36 14.3°C

Location Hamburg, Germany
Latitude: 53.5352783203125
Longitude: 9.835556030273438
Local Time 22:36 on 29 May 2024
UTC +2 hours (Europe/Berlin)
Currency £1 equals EUR 1.18
METAR EDHI 291950Z AUTO VRB02KT 9999 // FEW036/// SCT070/// OVC080/// 15/12 Q1007
TAF TAF EDHI 291700Z 2918/2921 20005KT 9999 FEW035 TEMPO 2918/2921 4500 SHRA BKN014CB
Weather As Of 29 May 2024 22:36
Description Overcast clouds
Wind 7 km/h from South-West (220°)
Cloud Cover 100%
Precipitation Rain: none, Snow: none
Sunrise 05:00
Sunset 21:35
Rotations During the last 90 days there were
1 flights to LHR
Web Wikipedia
Codes IATA: XFW
ICAO: EDHI
Altitude 7 Meter / 23 Feet
Distance 694 KM / 431 Miles
from London.
Runways
RunwayLength (m)Surface
052630Partial
232630Partial
Radio
TypeDescriptionFrequency
A/DBREMEN RADAR124.225
AFISBREMEN INFO125.1
ATISATIS123.125
TWRFINKENWERDER TWR123.25
Live ATC



Support Speedbird Online

© 2017-2024 Speedbird Online